Ocosta, Washington
Current Conditions -  °F | °C
As of 12:53 AM on Wednesday 26 Nov 2014 (Local Time) from KHQM Reporting Station
Haze Haze  
Wind Chill: 55°   Ceiling: 700
Heat Index: 55°   Visibility: 6mi
Dew Point: 54°   Wind: 18mph
Humidity: 96%   Direction: 200°SSW
Pressure: 30.2"   Gusts: NA
Location:  47.1445°N, 123.771°W
Report Text: KHQM 260853Z AUTO 20016KT 6SM BR BKN007 OVC017 13/12 A3020 RMK AO2 RAB04E18 SLP231 P0001 60001 T01280122 50000
Loading
Personal Weather Stations






























Interactive Weather Map New forecast layout! Learn more

10-Day Weather Forecast

Advertisements
Track Severe Weather on mobile